AirNav   TITAN Aviation Fuels
 
 1122 users online  

24OI Reeds Airport
St Paris, Ohio, USA

GOING TO ST PARIS?


FAA INFORMATION EFFECTIVE 22 APRIL 2021

Location

FAA Identifier: 24OI
Lat/Long: 40-04-40.2070N 083-53-49.7590W
40-04.670117N 083-53.829317W
40.0778353,-83.8971553
(estimated)
Elevation: 1200 ft. / 366 m (estimated)
Variation: 04W (1985)
From city: 5 miles SE of ST PARIS, OH
Time zone: UTC -4 (UTC -5 during Standard Time)
Zip code: 43078

Airport Operations

Airport use: Private use. Permission required prior to landing
Activation date: 07/1984
Control tower: no
ARTCC: INDIANAPOLIS CENTER
FSS: DAYTON FLIGHT SERVICE STATION
Attendance: UNATNDD
Wind indicator: yes
Segmented circle: no

Airport Communications

WX AWOS-3 at I74 (7 nm NE): 118.325 (937-484-5863)
WX AWOS-3PT at SGH (14 nm S): 134.975 (937-324-4532)
WX AWOS-3 at SCA (15 nm NW): 120.425 (937-492-3683)
WX AWOS-3 at EDJ (18 nm N): 118.075 (937-599-4654)
WX ASOS at DAY (18 nm SW): PHONE 937-415-6819

Nearby radio navigation aids

VOR radial/distance  VOR name  Freq  Var
RODr157/14.3ROSEWOOD VORTAC117.5005W
DQNr082/23.2DAYTON VOR/DME114.5001W
MXQr358/39.1MIDWEST VOR/DME112.9004W

 
NDB name  Hdg/Dist  Freq  Var  ID
CLARK COUNTY340/13.434104WCCJ -.-. -.-. .---
COURT HOUSE327/36.941406WCSS -.-. ... ...

Airport Services

Runway Information

Runway 18/36

Dimensions: 2000 x 75 ft. / 610 x 23 m
Surface: turf
RUNWAY 18  RUNWAY 36
Traffic pattern: leftleft
Obstructions: none35 ft. pline, 225 ft. from runway

Airport Ownership and Management from official FAA records

Ownership: Privately-owned
Owner: DAVID & PAULINE REED
5734 NETTLE CREEK RD
URBANA, OH 43078
Phone 937-508-8682
Manager: DAVID & PAULINE REED
5734 NETTLE CREEK RD
URBANA, OH 43078
Phone 937-508-8682

Airport Operational Statistics

Aircraft based on the field: 1
Single engine airplanes: 1
    

Additional Remarks

FOR CD CTC COLUMBUS APCH AT 614-338-8537

Instrument Procedures

There are no published instrument procedures at 24OI.

Some nearby airports with instrument procedures:

I74 - Grimes Field Airport (7 nm NE)
KSGH - Springfield-Beckley Municipal Airport (14 nm S)
KSCA - Sidney Municipal Airport (15 nm NW)
KFFO - Wright-Patterson Air Force Base (17 nm SW)
KEDJ - Bellefontaine Regional Airport (18 nm N)
KDAY - James M Cox Dayton International Airport (18 nm SW)
I17 - Piqua Airport/Hartzell Field (20 nm W)
 
Loc | Ops | Rwys | IFR | FBO | Links
Com | Nav | Svcs | Stats | Notes
Area around 24OI (Reeds Airport)
 
Road maps at: MapQuest Bing Google
 
Aerial photo
No photo
 
Sectional chart

 
Airport distance calculator
Flying to Reeds Airport? Find the distance to fly.

From to 24OI

Sunrise and sunset
Times for 15-May-2021
 Local
(UTC-4)
 Zulu
(UTC)
Morning civil twilight05:5009:50
Sunrise06:2110:21
Sunset20:4300:43
Evening civil twilight21:1401:14

Current date and time
Zulu (UTC)  15-May-2021 20:38:53
Local (UTC-4)  15-May-2021 16:38:53
 
METAR
KI74 
7nm NE 
152015Z AUTO 00000KT 10SM SCT090 20/00 A3023 RMK AO2
KSGH 
16nm S 
151956Z AUTO 15004KT 10SM BKN090 21/00 A3024 RMK AO2 SLP241 T02110000
KFFO 
17nm S 
151956Z 22007KT 10SM SCT090 BKN200 22/02 A3023 RMK AO2A SLP240 T02200016
KEDJ 
18nm N 
152015Z AUTO 23003KT 10SM FEW085 20/01 A3023 RMK AO1
KDAY 
18nm SW 
151956Z 19008KT 10SM SCT090 BKN250 22/01 A3024 RMK AO2 SLP237 T02170006
TAF
KFFO 
17nm S 
151900Z 1519/1701 18009KT 9999 SCT080 BKN220 QNH3018INS BECMG 1604/1605 VRB06KT 9999 VCSH BKN050 OVC120 610801 620909 QNH3017INS TEMPO 1609/1612 14007KT 9000 -RA BR BKN040 OVC100 BECMG 1612/1613 17009KT 9999 NSW BKN035 BKN100 QNH3016INS BECMG 1621/1622 17007KT 9999 SCT035 SCT250 QNH3016INS TX22/1520Z TN12/1610Z
KDAY 
18nm SW 
151733Z 1518/1618 20006KT P6SM FEW080 BKN200 FM152200 21005KT P6SM BKN120 FM160600 VRB03KT P6SM VCSH BKN070 FM161300 17005KT P6SM BKN040
NOTAMs
Click for the latest NOTAMs
NOTAMs are issued by the DoD/FAA and will open in a separate window not controlled by AirNav.

 

 
 

Would you like to see your business listed on this page?

 If your business provides an interesting product or service to pilots, flight crews, aircraft, or users of the Reeds Airport, you should consider listing it here.  To start the listing process, click on the button below
 
Add a business
 

Other Pages about Reeds Airport

Update a link
 
Copyright © AirNav, LLC. All rights reserved. Privacy Policy  Contact